sensor_id;sensor_type;location;lat;lon;timestamp;temperature;humidity
66271;DHT22;53063;39.614;8.814;2022-08-25T00:01:59;24.30;71.10
66271;DHT22;53063;39.614;8.814;2022-08-25T00:04:26;24.10;71.90
66271;DHT22;53063;39.614;8.814;2022-08-25T00:06:54;23.90;72.20
66271;DHT22;53063;39.614;8.814;2022-08-25T00:09:24;23.90;72.50
66271;DHT22;53063;39.614;8.814;2022-08-25T00:11:51;24.00;72.80
66271;DHT22;53063;39.614;8.814;2022-08-25T00:14:23;24.00;73.00
66271;DHT22;53063;39.614;8.814;2022-08-25T00:16:49;23.80;73.20
66271;DHT22;53063;39.614;8.814;2022-08-25T00:19:20;23.80;73.30
66271;DHT22;53063;39.614;8.814;2022-08-25T00:21:46;23.70;73.40
66271;DHT22;53063;39.614;8.814;2022-08-25T00:24:15;23.60;73.50
66271;DHT22;53063;39.614;8.814;2022-08-25T00:26:44;23.60;73.60
66271;DHT22;53063;39.614;8.814;2022-08-25T00:29:11;23.60;73.50
66271;DHT22;53063;39.614;8.814;2022-08-25T00:31:38;23.60;73.60
66271;DHT22;53063;39.614;8.814;2022-08-25T00:34:07;23.60;73.50
66271;DHT22;53063;39.614;8.814;2022-08-25T00:36:34;23.30;73.60
66271;DHT22;53063;39.614;8.814;2022-08-25T00:39:00;23.20;74.10
66271;DHT22;53063;39.614;8.814;2022-08-25T00:41:26;23.10;74.50
66271;DHT22;53063;39.614;8.814;2022-08-25T00:43:54;23.10;74.60
66271;DHT22;53063;39.614;8.814;2022-08-25T00:46:24;23.10;74.90
66271;DHT22;53063;39.614;8.814;2022-08-25T00:48:59;23.10;74.90
66271;DHT22;53063;39.614;8.814;2022-08-25T00:51:40;23.00;74.90
66271;DHT22;53063;39.614;8.814;2022-08-25T00:54:09;23.00;75.00
66271;DHT22;53063;39.614;8.814;2022-08-25T00:56:37;22.90;75.20
66271;DHT22;53063;39.614;8.814;2022-08-25T00:59:04;22.90;75.30
66271;DHT22;53063;39.614;8.814;2022-08-25T01:01:31;22.80;75.60
66271;DHT22;53063;39.614;8.814;2022-08-25T01:03:57;22.80;75.60
66271;DHT22;53063;39.614;8.814;2022-08-25T01:06:23;22.90;75.70
66271;DHT22;53063;39.614;8.814;2022-08-25T01:08:50;22.80;75.20
66271;DHT22;53063;39.614;8.814;2022-08-25T01:11:17;22.80;75.50
66271;DHT22;53063;39.614;8.814;2022-08-25T01:13:46;22.70;75.80
66271;DHT22;53063;39.614;8.814;2022-08-25T01:16:14;22.60;76.10
66271;DHT22;53063;39.614;8.814;2022-08-25T01:18:50;22.80;75.80
66271;DHT22;53063;39.614;8.814;2022-08-25T01:21:19;22.70;75.60
66271;DHT22;53063;39.614;8.814;2022-08-25T01:23:46;22.60;76.10
66271;DHT22;53063;39.614;8.814;2022-08-25T01:26:25;22.70;76.30
66271;DHT22;53063;39.614;8.814;2022-08-25T01:28:52;22.90;76.00
66271;DHT22;53063;39.614;8.814;2022-08-25T01:31:38;23.00;75.70
66271;DHT22;53063;39.614;8.814;2022-08-25T01:34:06;23.00;75.40
66271;DHT22;53063;39.614;8.814;2022-08-25T01:36:33;23.00;75.10
66271;DHT22;53063;39.614;8.814;2022-08-25T01:39:00;23.00;75.20
66271;DHT22;53063;39.614;8.814;2022-08-25T01:43:59;22.90;75.40
66271;DHT22;53063;39.614;8.814;2022-08-25T01:46:25;23.00;75.30
66271;DHT22;53063;39.614;8.814;2022-08-25T01:48:52;23.10;74.90
66271;DHT22;53063;39.614;8.814;2022-08-25T01:51:24;23.00;74.90
66271;DHT22;53063;39.614;8.814;2022-08-25T01:53:50;22.50;75.30
66271;DHT22;53063;39.614;8.814;2022-08-25T01:56:17;22.30;76.40
66271;DHT22;53063;39.614;8.814;2022-08-25T01:58:45;22.30;76.70
66271;DHT22;53063;39.614;8.814;2022-08-25T02:01:20;22.30;76.90
66271;DHT22;53063;39.614;8.814;2022-08-25T02:03:50;22.50;77.00
66271;DHT22;53063;39.614;8.814;2022-08-25T02:06:27;22.60;76.60
66271;DHT22;53063;39.614;8.814;2022-08-25T02:08:57;22.60;76.60
66271;DHT22;53063;39.614;8.814;2022-08-25T02:11:24;22.70;76.30
66271;DHT22;53063;39.614;8.814;2022-08-25T02:13:50;22.70;76.10
66271;DHT22;53063;39.614;8.814;2022-08-25T02:16:22;22.60;76.10
66271;DHT22;53063;39.614;8.814;2022-08-25T02:18:50;22.50;76.20
66271;DHT22;53063;39.614;8.814;2022-08-25T02:21:16;22.50;76.20
66271;DHT22;53063;39.614;8.814;2022-08-25T02:23:42;22.30;75.60
66271;DHT22;53063;39.614;8.814;2022-08-25T02:26:09;22.10;75.90
66271;DHT22;53063;39.614;8.814;2022-08-25T02:28:35;22.00;76.30
66271;DHT22;53063;39.614;8.814;2022-08-25T02:31:04;22.10;76.30
66271;DHT22;53063;39.614;8.814;2022-08-25T02:33:30;22.40;76.00
66271;DHT22;53063;39.614;8.814;2022-08-25T02:36:00;22.40;75.40
66271;DHT22;53063;39.614;8.814;2022-08-25T02:38:27;22.50;75.20
66271;DHT22;53063;39.614;8.814;2022-08-25T02:40:55;22.60;75.00
66271;DHT22;53063;39.614;8.814;2022-08-25T02:43:21;22.60;75.00
66271;DHT22;53063;39.614;8.814;2022-08-25T02:45:47;22.40;75.30
66271;DHT22;53063;39.614;8.814;2022-08-25T02:48:13;22.20;75.80
66271;DHT22;53063;39.614;8.814;2022-08-25T02:50:39;22.20;76.10
66271;DHT22;53063;39.614;8.814;2022-08-25T02:53:06;22.30;75.90
66271;DHT22;53063;39.614;8.814;2022-08-25T02:55:32;22.30;75.90
66271;DHT22;53063;39.614;8.814;2022-08-25T02:57:58;22.50;75.30
66271;DHT22;53063;39.614;8.814;2022-08-25T03:00:24;22.40;75.00
66271;DHT22;53063;39.614;8.814;2022-08-25T03:02:51;22.20;75.60
66271;DHT22;53063;39.614;8.814;2022-08-25T03:05:17;22.30;75.60
66271;DHT22;53063;39.614;8.814;2022-08-25T03:07:43;22.20;75.90
66271;DHT22;53063;39.614;8.814;2022-08-25T03:10:15;22.20;75.80
66271;DHT22;53063;39.614;8.814;2022-08-25T03:12:41;22.20;75.60
66271;DHT22;53063;39.614;8.814;2022-08-25T03:15:08;22.10;75.30
66271;DHT22;53063;39.614;8.814;2022-08-25T03:17:35;22.00;75.90
66271;DHT22;53063;39.614;8.814;2022-08-25T03:20:03;22.00;76.20
66271;DHT22;53063;39.614;8.814;2022-08-25T03:22:30;22.00;76.10
66271;DHT22;53063;39.614;8.814;2022-08-25T03:24:56;21.80;76.30
66271;DHT22;53063;39.614;8.814;2022-08-25T03:27:42;21.80;76.20
66271;DHT22;53063;39.614;8.814;2022-08-25T03:30:09;21.80;75.90
66271;DHT22;53063;39.614;8.814;2022-08-25T03:32:35;21.90;75.60
66271;DHT22;53063;39.614;8.814;2022-08-25T03:35:02;22.00;75.90
66271;DHT22;53063;39.614;8.814;2022-08-25T03:37:28;22.10;75.70
66271;DHT22;53063;39.614;8.814;2022-08-25T03:39:54;22.10;75.40
66271;DHT22;53063;39.614;8.814;2022-08-25T03:42:20;22.10;75.20
66271;DHT22;53063;39.614;8.814;2022-08-25T03:44:46;22.10;75.50
66271;DHT22;53063;39.614;8.814;2022-08-25T03:47:11;22.10;75.70
66271;DHT22;53063;39.614;8.814;2022-08-25T03:49:37;22.20;75.80
66271;DHT22;53063;39.614;8.814;2022-08-25T03:52:04;22.20;75.80
66271;DHT22;53063;39.614;8.814;2022-08-25T03:54:29;22.30;75.80
66271;DHT22;53063;39.614;8.814;2022-08-25T03:56:56;22.10;76.00
66271;DHT22;53063;39.614;8.814;2022-08-25T03:59:21;22.20;75.60
66271;DHT22;53063;39.614;8.814;2022-08-25T04:01:49;22.20;75.50
66271;DHT22;53063;39.614;8.814;2022-08-25T04:04:15;22.20;75.60
66271;DHT22;53063;39.614;8.814;2022-08-25T04:06:43;22.20;75.80
66271;DHT22;53063;39.614;8.814;2022-08-25T04:09:09;22.20;75.90
66271;DHT22;53063;39.614;8.814;2022-08-25T04:11:36;22.20;75.90
66271;DHT22;53063;39.614;8.814;2022-08-25T04:14:03;22.20;75.90
66271;DHT22;53063;39.614;8.814;2022-08-25T04:16:33;22.20;75.80
66271;DHT22;53063;39.614;8.814;2022-08-25T04:19:01;22.20;75.90
66271;DHT22;53063;39.614;8.814;2022-08-25T04:21:28;22.10;76.20
66271;DHT22;53063;39.614;8.814;2022-08-25T04:23:55;22.00;76.50
66271;DHT22;53063;39.614;8.814;2022-08-25T04:26:37;22.00;76.80
66271;DHT22;53063;39.614;8.814;2022-08-25T04:29:06;22.10;76.90
66271;DHT22;53063;39.614;8.814;2022-08-25T04:31:33;22.20;76.70
66271;DHT22;53063;39.614;8.814;2022-08-25T04:34:01;22.20;76.50
66271;DHT22;53063;39.614;8.814;2022-08-25T04:36:27;22.20;76.40
66271;DHT22;53063;39.614;8.814;2022-08-25T04:38:54;22.20;76.50
66271;DHT22;53063;39.614;8.814;2022-08-25T04:41:22;22.10;76.70
66271;DHT22;53063;39.614;8.814;2022-08-25T04:43:49;22.00;76.90
66271;DHT22;53063;39.614;8.814;2022-08-25T04:46:19;22.00;77.20
66271;DHT22;53063;39.614;8.814;2022-08-25T04:48:45;21.80;77.40
66271;DHT22;53063;39.614;8.814;2022-08-25T04:51:15;21.80;77.70
66271;DHT22;53063;39.614;8.814;2022-08-25T04:53:41;21.70;77.70
66271;DHT22;53063;39.614;8.814;2022-08-25T04:56:10;21.60;77.40
66271;DHT22;53063;39.614;8.814;2022-08-25T04:58:37;21.50;77.40
66271;DHT22;53063;39.614;8.814;2022-08-25T05:01:07;21.60;77.50
66271;DHT22;53063;39.614;8.814;2022-08-25T05:03:34;21.70;77.70
66271;DHT22;53063;39.614;8.814;2022-08-25T05:06:00;21.80;77.70
66271;DHT22;53063;39.614;8.814;2022-08-25T05:08:27;21.80;77.70
66271;DHT22;53063;39.614;8.814;2022-08-25T05:10:53;21.80;77.60
66271;DHT22;53063;39.614;8.814;2022-08-25T05:13:23;21.60;78.10
66271;DHT22;53063;39.614;8.814;2022-08-25T05:15:56;21.80;78.50
66271;DHT22;53063;39.614;8.814;2022-08-25T05:18:24;22.00;78.40
66271;DHT22;53063;39.614;8.814;2022-08-25T05:20:51;22.00;78.00
66271;DHT22;53063;39.614;8.814;2022-08-25T05:23:20;21.90;77.80
66271;DHT22;53063;39.614;8.814;2022-08-25T05:25:47;21.90;77.80
66271;DHT22;53063;39.614;8.814;2022-08-25T05:28:14;22.00;77.20
66271;DHT22;53063;39.614;8.814;2022-08-25T05:30:41;22.20;76.10
66271;DHT22;53063;39.614;8.814;2022-08-25T05:33:09;22.30;75.10
66271;DHT22;53063;39.614;8.814;2022-08-25T05:35:36;22.40;74.60
66271;DHT22;53063;39.614;8.814;2022-08-25T05:38:03;22.40;74.70
66271;DHT22;53063;39.614;8.814;2022-08-25T05:40:30;22.50;73.70
66271;DHT22;53063;39.614;8.814;2022-08-25T05:42:56;22.60;72.80
66271;DHT22;53063;39.614;8.814;2022-08-25T05:45:22;22.80;71.90
66271;DHT22;53063;39.614;8.814;2022-08-25T05:47:49;22.90;72.10
66271;DHT22;53063;39.614;8.814;2022-08-25T05:50:16;23.00;71.70
66271;DHT22;53063;39.614;8.814;2022-08-25T05:52:42;22.90;71.70
66271;DHT22;53063;39.614;8.814;2022-08-25T05:55:10;23.10;71.90
66271;DHT22;53063;39.614;8.814;2022-08-25T05:57:36;23.10;71.20
66271;DHT22;53063;39.614;8.814;2022-08-25T06:00:04;23.20;71.40
66271;DHT22;53063;39.614;8.814;2022-08-25T06:02:38;23.50;70.70
66271;DHT22;53063;39.614;8.814;2022-08-25T06:05:18;23.50;70.10
66271;DHT22;53063;39.614;8.814;2022-08-25T06:07:46;23.60;69.90
66271;DHT22;53063;39.614;8.814;2022-08-25T06:10:13;23.80;69.30
66271;DHT22;53063;39.614;8.814;2022-08-25T06:12:41;23.70;69.10
66271;DHT22;53063;39.614;8.814;2022-08-25T06:15:12;24.00;68.60
66271;DHT22;53063;39.614;8.814;2022-08-25T06:17:38;24.10;68.20
66271;DHT22;53063;39.614;8.814;2022-08-25T06:20:14;24.10;68.30
66271;DHT22;53063;39.614;8.814;2022-08-25T06:22:40;24.30;67.70
66271;DHT22;53063;39.614;8.814;2022-08-25T06:25:08;24.20;66.90
66271;DHT22;53063;39.614;8.814;2022-08-25T06:27:35;24.30;66.10
66271;DHT22;53063;39.614;8.814;2022-08-25T06:30:02;24.30;66.20
66271;DHT22;53063;39.614;8.814;2022-08-25T06:32:33;24.40;66.30
66271;DHT22;53063;39.614;8.814;2022-08-25T06:35:02;24.60;66.20
66271;DHT22;53063;39.614;8.814;2022-08-25T06:37:28;24.80;65.80
66271;DHT22;53063;39.614;8.814;2022-08-25T06:39:54;24.70;66.40
66271;DHT22;53063;39.614;8.814;2022-08-25T06:42:20;24.80;67.30
66271;DHT22;53063;39.614;8.814;2022-08-25T06:44:47;25.00;66.60
66271;DHT22;53063;39.614;8.814;2022-08-25T06:47:13;25.20;65.70
66271;DHT22;53063;39.614;8.814;2022-08-25T06:49:41;25.20;65.50
66271;DHT22;53063;39.614;8.814;2022-08-25T06:52:08;25.40;65.40
66271;DHT22;53063;39.614;8.814;2022-08-25T06:54:34;25.50;64.50
66271;DHT22;53063;39.614;8.814;2022-08-25T06:57:01;25.70;64.40
66271;DHT22;53063;39.614;8.814;2022-08-25T06:59:28;25.80;63.10
66271;DHT22;53063;39.614;8.814;2022-08-25T07:01:54;25.80;63.70
66271;DHT22;53063;39.614;8.814;2022-08-25T07:04:20;26.00;63.90
66271;DHT22;53063;39.614;8.814;2022-08-25T07:06:46;25.90;63.10
66271;DHT22;53063;39.614;8.814;2022-08-25T07:09:12;26.30;63.00
66271;DHT22;53063;39.614;8.814;2022-08-25T07:11:40;26.50;62.30
66271;DHT22;53063;39.614;8.814;2022-08-25T07:14:08;26.60;60.70
66271;DHT22;53063;39.614;8.814;2022-08-25T07:16:35;26.40;61.50
66271;DHT22;53063;39.614;8.814;2022-08-25T07:19:02;26.60;61.90
66271;DHT22;53063;39.614;8.814;2022-08-25T07:21:30;26.90;61.00
66271;DHT22;53063;39.614;8.814;2022-08-25T07:23:56;27.00;59.90
66271;DHT22;53063;39.614;8.814;2022-08-25T07:26:27;27.20;58.60
66271;DHT22;53063;39.614;8.814;2022-08-25T07:28:54;27.20;58.30
66271;DHT22;53063;39.614;8.814;2022-08-25T07:31:21;27.30;58.30
66271;DHT22;53063;39.614;8.814;2022-08-25T07:33:47;27.40;57.70
66271;DHT22;53063;39.614;8.814;2022-08-25T07:36:32;27.50;57.20
66271;DHT22;53063;39.614;8.814;2022-08-25T07:38:58;27.60;56.80
66271;DHT22;53063;39.614;8.814;2022-08-25T07:41:25;27.30;57.30
66271;DHT22;53063;39.614;8.814;2022-08-25T07:43:52;27.40;57.50
66271;DHT22;53063;39.614;8.814;2022-08-25T07:46:18;27.70;56.20
66271;DHT22;53063;39.614;8.814;2022-08-25T07:48:44;27.70;56.70
66271;DHT22;53063;39.614;8.814;2022-08-25T07:51:11;27.60;55.80
66271;DHT22;53063;39.614;8.814;2022-08-25T07:53:39;27.80;56.00
66271;DHT22;53063;39.614;8.814;2022-08-25T07:56:11;28.00;55.90
66271;DHT22;53063;39.614;8.814;2022-08-25T07:58:38;28.20;54.50
66271;DHT22;53063;39.614;8.814;2022-08-25T08:01:06;28.00;54.60
66271;DHT22;53063;39.614;8.814;2022-08-25T08:03:33;28.50;53.80
66271;DHT22;53063;39.614;8.814;2022-08-25T08:06:00;28.80;52.70
66271;DHT22;53063;39.614;8.814;2022-08-25T08:08:26;28.60;53.10
66271;DHT22;53063;39.614;8.814;2022-08-25T08:10:53;28.70;52.30
66271;DHT22;53063;39.614;8.814;2022-08-25T08:13:19;28.40;52.90
66271;DHT22;53063;39.614;8.814;2022-08-25T08:15:45;29.00;51.70
66271;DHT22;53063;39.614;8.814;2022-08-25T08:18:11;29.20;51.50
66271;DHT22;53063;39.614;8.814;2022-08-25T08:20:37;28.70;52.30
66271;DHT22;53063;39.614;8.814;2022-08-25T08:23:03;28.90;51.70
66271;DHT22;53063;39.614;8.814;2022-08-25T08:25:31;29.20;51.60
66271;DHT22;53063;39.614;8.814;2022-08-25T08:27:57;29.90;51.60
66271;DHT22;53063;39.614;8.814;2022-08-25T08:30:24;30.00;49.10
66271;DHT22;53063;39.614;8.814;2022-08-25T08:32:50;29.80;49.30
66271;DHT22;53063;39.614;8.814;2022-08-25T08:35:16;30.10;49.50
66271;DHT22;53063;39.614;8.814;2022-08-25T08:37:44;30.20;49.70
66271;DHT22;53063;39.614;8.814;2022-08-25T08:40:14;30.50;47.80
66271;DHT22;53063;39.614;8.814;2022-08-25T08:43:13;30.40;47.80
66271;DHT22;53063;39.614;8.814;2022-08-25T08:45:49;30.40;48.10
66271;DHT22;53063;39.614;8.814;2022-08-25T08:56:24;30.80;46.30
66271;DHT22;53063;39.614;8.814;2022-08-25T08:58:55;31.00;45.90
66271;DHT22;53063;39.614;8.814;2022-08-25T09:01:26;30.70;46.60
66271;DHT22;53063;39.614;8.814;2022-08-25T09:04:12;31.20;46.80
66271;DHT22;53063;39.614;8.814;2022-08-25T09:06:43;31.60;46.50
66271;DHT22;53063;39.614;8.814;2022-08-25T09:09:15;32.10;44.70
66271;DHT22;53063;39.614;8.814;2022-08-25T09:15:03;31.90;45.60
66271;DHT22;53063;39.614;8.814;2022-08-25T09:28:49;32.40;42.40
66271;DHT22;53063;39.614;8.814;2022-08-25T09:31:22;32.50;43.70
66271;DHT22;53063;39.614;8.814;2022-08-25T09:33:53;32.20;43.70
66271;DHT22;53063;39.614;8.814;2022-08-25T09:36:20;33.10;42.70
66271;DHT22;53063;39.614;8.814;2022-08-25T09:38:45;32.80;42.90
66271;DHT22;53063;39.614;8.814;2022-08-25T09:41:16;32.90;42.70
66271;DHT22;53063;39.614;8.814;2022-08-25T09:43:52;33.00;42.70
66271;DHT22;53063;39.614;8.814;2022-08-25T09:46:27;33.10;42.00
66271;DHT22;53063;39.614;8.814;2022-08-25T09:48:55;32.90;41.10
66271;DHT22;53063;39.614;8.814;2022-08-25T09:51:28;32.70;42.10
66271;DHT22;53063;39.614;8.814;2022-08-25T09:56:31;33.60;40.80
66271;DHT22;53063;39.614;8.814;2022-08-25T09:59:31;33.20;40.90
66271;DHT22;53063;39.614;8.814;2022-08-25T10:02:01;33.10;40.90
66271;DHT22;53063;39.614;8.814;2022-08-25T10:07:00;34.00;40.00
66271;DHT22;53063;39.614;8.814;2022-08-25T10:09:31;34.30;38.90
66271;DHT22;53063;39.614;8.814;2022-08-25T10:12:00;34.50;39.00
66271;DHT22;53063;39.614;8.814;2022-08-25T10:14:33;34.40;38.80
66271;DHT22;53063;39.614;8.814;2022-08-25T10:19:39;33.60;39.30
66271;DHT22;53063;39.614;8.814;2022-08-25T10:22:11;34.10;38.50
66271;DHT22;53063;39.614;8.814;2022-08-25T10:24:39;34.70;37.90
66271;DHT22;53063;39.614;8.814;2022-08-25T10:30:12;35.50;35.60
66271;DHT22;53063;39.614;8.814;2022-08-25T10:35:16;33.80;36.00
66271;DHT22;53063;39.614;8.814;2022-08-25T10:43:26;34.70;35.50
66271;DHT22;53063;39.614;8.814;2022-08-25T10:46:23;33.90;36.20
66271;DHT22;53063;39.614;8.814;2022-08-25T10:49:13;34.90;35.50
66271;DHT22;53063;39.614;8.814;2022-08-25T10:56:56;36.20;31.60
66271;DHT22;53063;39.614;8.814;2022-08-25T10:59:46;36.60;32.10
66271;DHT22;53063;39.614;8.814;2022-08-25T11:02:40;36.20;32.70
66271;DHT22;53063;39.614;8.814;2022-08-25T11:08:04;36.70;30.20
66271;DHT22;53063;39.614;8.814;2022-08-25T11:13:37;36.60;29.70
66271;DHT22;53063;39.614;8.814;2022-08-25T11:16:56;36.70;29.30
66271;DHT22;53063;39.614;8.814;2022-08-25T11:19:27;37.10;30.10
66271;DHT22;53063;39.614;8.814;2022-08-25T11:27:37;37.00;32.10
66271;DHT22;53063;39.614;8.814;2022-08-25T11:30:11;37.10;32.30
66271;DHT22;53063;39.614;8.814;2022-08-25T11:32:38;36.90;32.60
66271;DHT22;53063;39.614;8.814;2022-08-25T11:35:07;36.90;32.90
66271;DHT22;53063;39.614;8.814;2022-08-25T11:38:00;37.30;32.50
66271;DHT22;53063;39.614;8.814;2022-08-25T11:43:35;37.40;31.40
66271;DHT22;53063;39.614;8.814;2022-08-25T11:46:26;37.30;30.80
66271;DHT22;53063;39.614;8.814;2022-08-25T11:51:51;37.50;30.50
66271;DHT22;53063;39.614;8.814;2022-08-25T11:54:22;37.20;30.90
66271;DHT22;53063;39.614;8.814;2022-08-25T11:57:42;37.60;30.50
66271;DHT22;53063;39.614;8.814;2022-08-25T12:08:05;38.00;29.40
66271;DHT22;53063;39.614;8.814;2022-08-25T12:11:01;37.70;28.70
66271;DHT22;53063;39.614;8.814;2022-08-25T12:13:47;37.80;28.50
66271;DHT22;53063;39.614;8.814;2022-08-25T12:19:27;38.20;29.10
66271;DHT22;53063;39.614;8.814;2022-08-25T12:32:50;37.80;28.00
66271;DHT22;53063;39.614;8.814;2022-08-25T12:35:30;37.70;29.40
66271;DHT22;53063;39.614;8.814;2022-08-25T12:40:53;37.60;27.60
66271;DHT22;53063;39.614;8.814;2022-08-25T12:43:28;37.50;29.10
66271;DHT22;53063;39.614;8.814;2022-08-25T12:48:55;37.60;29.40
66271;DHT22;53063;39.614;8.814;2022-08-25T12:51:47;37.60;29.60
66271;DHT22;53063;39.614;8.814;2022-08-25T13:00:21;37.20;30.60
66271;DHT22;53063;39.614;8.814;2022-08-25T13:02:56;37.00;30.50
66271;DHT22;53063;39.614;8.814;2022-08-25T13:10:50;36.50;32.80
66271;DHT22;53063;39.614;8.814;2022-08-25T13:16:06;36.60;33.90
66271;DHT22;53063;39.614;8.814;2022-08-25T13:18:35;36.30;33.90
66271;DHT22;53063;39.614;8.814;2022-08-25T13:21:38;36.20;33.60
66271;DHT22;53063;39.614;8.814;2022-08-25T13:24:08;35.80;33.40
66271;DHT22;53063;39.614;8.814;2022-08-25T13:26:40;35.70;34.30
66271;DHT22;53063;39.614;8.814;2022-08-25T13:31:35;35.60;34.80
66271;DHT22;53063;39.614;8.814;2022-08-25T13:34:06;35.50;34.40
66271;DHT22;53063;39.614;8.814;2022-08-25T13:36:43;35.50;34.80
66271;DHT22;53063;39.614;8.814;2022-08-25T13:39:28;35.50;35.20
66271;DHT22;53063;39.614;8.814;2022-08-25T13:41:56;35.40;36.10
66271;DHT22;53063;39.614;8.814;2022-08-25T13:44:28;35.40;36.40
66271;DHT22;53063;39.614;8.814;2022-08-25T13:47:05;34.90;38.10
66271;DHT22;53063;39.614;8.814;2022-08-25T13:49:32;34.80;37.10
66271;DHT22;53063;39.614;8.814;2022-08-25T13:52:01;34.70;38.70
66271;DHT22;53063;39.614;8.814;2022-08-25T13:57:13;34.60;38.40
66271;DHT22;53063;39.614;8.814;2022-08-25T13:59:41;34.40;38.90
66271;DHT22;53063;39.614;8.814;2022-08-25T14:02:10;34.40;39.40
66271;DHT22;53063;39.614;8.814;2022-08-25T14:09:58;34.30;38.20
66271;DHT22;53063;39.614;8.814;2022-08-25T14:15:00;34.00;37.70
66271;DHT22;53063;39.614;8.814;2022-08-25T14:17:27;33.90;37.70
66271;DHT22;53063;39.614;8.814;2022-08-25T14:19:53;33.80;37.60
66271;DHT22;53063;39.614;8.814;2022-08-25T14:22:20;33.80;37.40
66271;DHT22;53063;39.614;8.814;2022-08-25T14:24:46;33.80;38.50
66271;DHT22;53063;39.614;8.814;2022-08-25T14:27:12;33.60;39.40
66271;DHT22;53063;39.614;8.814;2022-08-25T14:29:38;33.30;40.80
66271;DHT22;53063;39.614;8.814;2022-08-25T14:32:04;33.30;40.10
66271;DHT22;53063;39.614;8.814;2022-08-25T14:34:33;33.10;39.70
66271;DHT22;53063;39.614;8.814;2022-08-25T14:37:05;33.00;40.90
66271;DHT22;53063;39.614;8.814;2022-08-25T14:39:34;32.90;40.80
66271;DHT22;53063;39.614;8.814;2022-08-25T14:42:00;33.00;41.20
66271;DHT22;53063;39.614;8.814;2022-08-25T14:44:26;33.00;41.70
66271;DHT22;53063;39.614;8.814;2022-08-25T14:46:54;32.80;42.60
66271;DHT22;53063;39.614;8.814;2022-08-25T14:49:27;32.70;43.50
66271;DHT22;53063;39.614;8.814;2022-08-25T14:52:13;32.80;43.50
66271;DHT22;53063;39.614;8.814;2022-08-25T14:54:41;32.80;43.50
66271;DHT22;53063;39.614;8.814;2022-08-25T14:57:07;32.50;42.10
66271;DHT22;53063;39.614;8.814;2022-08-25T14:59:33;32.30;44.10
66271;DHT22;53063;39.614;8.814;2022-08-25T15:01:59;32.20;41.70
66271;DHT22;53063;39.614;8.814;2022-08-25T15:04:27;32.20;43.70
66271;DHT22;53063;39.614;8.814;2022-08-25T15:06:56;32.30;42.60
66271;DHT22;53063;39.614;8.814;2022-08-25T15:09:23;32.20;41.30
66271;DHT22;53063;39.614;8.814;2022-08-25T15:11:54;32.10;42.70
66271;DHT22;53063;39.614;8.814;2022-08-25T15:14:22;32.00;42.60
66271;DHT22;53063;39.614;8.814;2022-08-25T15:16:51;32.00;42.80
66271;DHT22;53063;39.614;8.814;2022-08-25T15:19:20;31.90;44.70
66271;DHT22;53063;39.614;8.814;2022-08-25T15:21:48;31.90;45.60
66271;DHT22;53063;39.614;8.814;2022-08-25T15:24:15;31.90;46.70
66271;DHT22;53063;39.614;8.814;2022-08-25T15:26:56;31.80;47.20
66271;DHT22;53063;39.614;8.814;2022-08-25T15:29:24;31.60;48.70
66271;DHT22;53063;39.614;8.814;2022-08-25T15:31:52;31.60;49.30
66271;DHT22;53063;39.614;8.814;2022-08-25T15:34:18;31.70;49.30
66271;DHT22;53063;39.614;8.814;2022-08-25T15:36:44;31.50;49.70
66271;DHT22;53063;39.614;8.814;2022-08-25T15:39:10;31.20;51.00
66271;DHT22;53063;39.614;8.814;2022-08-25T15:41:36;31.30;51.70
66271;DHT22;53063;39.614;8.814;2022-08-25T15:44:04;31.30;51.70
66271;DHT22;53063;39.614;8.814;2022-08-25T15:46:32;31.30;52.00
66271;DHT22;53063;39.614;8.814;2022-08-25T15:48:58;31.00;51.80
66271;DHT22;53063;39.614;8.814;2022-08-25T15:51:25;31.00;51.60
66271;DHT22;53063;39.614;8.814;2022-08-25T15:53:52;30.80;52.50
66271;DHT22;53063;39.614;8.814;2022-08-25T15:56:18;30.70;52.50
66271;DHT22;53063;39.614;8.814;2022-08-25T15:58:44;30.50;53.00
66271;DHT22;53063;39.614;8.814;2022-08-25T16:01:23;30.60;51.90
66271;DHT22;53063;39.614;8.814;2022-08-25T16:03:49;30.70;52.60
66271;DHT22;53063;39.614;8.814;2022-08-25T16:06:16;30.80;52.90
66271;DHT22;53063;39.614;8.814;2022-08-25T16:08:43;30.80;52.80
66271;DHT22;53063;39.614;8.814;2022-08-25T16:11:21;30.60;52.90
66271;DHT22;53063;39.614;8.814;2022-08-25T16:13:50;30.50;52.70
66271;DHT22;53063;39.614;8.814;2022-08-25T16:16:17;30.40;53.70
66271;DHT22;53063;39.614;8.814;2022-08-25T16:18:43;30.40;53.70
66271;DHT22;53063;39.614;8.814;2022-08-25T16:21:16;30.20;52.50
66271;DHT22;53063;39.614;8.814;2022-08-25T16:23:44;30.00;53.60
66271;DHT22;53063;39.614;8.814;2022-08-25T16:26:11;30.10;54.90
66271;DHT22;53063;39.614;8.814;2022-08-25T16:28:41;30.10;54.60
66271;DHT22;53063;39.614;8.814;2022-08-25T16:31:10;29.90;54.60
66271;DHT22;53063;39.614;8.814;2022-08-25T16:33:37;29.70;54.50
66271;DHT22;53063;39.614;8.814;2022-08-25T16:36:09;29.70;55.50
66271;DHT22;53063;39.614;8.814;2022-08-25T16:38:36;29.70;56.40
66271;DHT22;53063;39.614;8.814;2022-08-25T16:41:07;29.60;56.10
66271;DHT22;53063;39.614;8.814;2022-08-25T16:43:34;29.50;57.60
66271;DHT22;53063;39.614;8.814;2022-08-25T16:46:02;29.60;56.70
66271;DHT22;53063;39.614;8.814;2022-08-25T16:48:29;29.70;57.00
66271;DHT22;53063;39.614;8.814;2022-08-25T16:50:56;29.60;56.70
66271;DHT22;53063;39.614;8.814;2022-08-25T16:53:22;29.40;56.30
66271;DHT22;53063;39.614;8.814;2022-08-25T16:56:06;29.40;56.70
66271;DHT22;53063;39.614;8.814;2022-08-25T16:58:34;29.40;57.60
66271;DHT22;53063;39.614;8.814;2022-08-25T17:01:05;29.40;57.70
66271;DHT22;53063;39.614;8.814;2022-08-25T17:03:32;29.50;56.90
66271;DHT22;53063;39.614;8.814;2022-08-25T17:05:59;29.50;57.30
66271;DHT22;53063;39.614;8.814;2022-08-25T17:08:25;29.30;58.00
66271;DHT22;53063;39.614;8.814;2022-08-25T17:11:14;29.20;58.50
66271;DHT22;53063;39.614;8.814;2022-08-25T17:13:44;29.00;59.30
66271;DHT22;53063;39.614;8.814;2022-08-25T17:16:11;28.90;59.00
66271;DHT22;53063;39.614;8.814;2022-08-25T17:18:38;29.00;59.40
66271;DHT22;53063;39.614;8.814;2022-08-25T17:21:12;29.00;60.20
66271;DHT22;53063;39.614;8.814;2022-08-25T17:23:40;29.00;60.20
66271;DHT22;53063;39.614;8.814;2022-08-25T17:26:10;29.00;60.60
66271;DHT22;53063;39.614;8.814;2022-08-25T17:28:37;28.90;61.60
66271;DHT22;53063;39.614;8.814;2022-08-25T17:31:08;28.80;61.40
66271;DHT22;53063;39.614;8.814;2022-08-25T17:33:35;28.60;61.80
66271;DHT22;53063;39.614;8.814;2022-08-25T17:36:02;28.60;62.60
66271;DHT22;53063;39.614;8.814;2022-08-25T17:38:29;28.40;62.50
66271;DHT22;53063;39.614;8.814;2022-08-25T17:40:58;28.30;63.10
66271;DHT22;53063;39.614;8.814;2022-08-25T17:43:26;28.20;63.50
66271;DHT22;53063;39.614;8.814;2022-08-25T17:45:53;28.10;64.00
66271;DHT22;53063;39.614;8.814;2022-08-25T17:48:23;28.20;63.90